Time;durP1;ratioP1;P1;durP2;ratioP2;P2;SDS_P1;SDS_P2;PMS_P1;PMS_P2;Temp;Humidity;BMP_temperature;BMP_pressure;BME280_temperature;BME280_humidity;BME280_pressure;Samples;Min_cycle;Max_cycle;Signal;HPM_P1;HPM_P2
2022/08/08 00:00:18;;;;;;;11.90;7.20;;;;;;;19.25;66.51;100748.53;1708414;83;21205;-57
2022/08/08 00:03:49;;;;;;;7.45;6.12;;;;;;;19.20;66.43;100746.95;1694137;83;21362;-57
2022/08/08 00:07:40;;;;;;;9.60;6.55;;;;;;;19.13;66.38;100746.17;1692242;81;21260;-56
2022/08/08 00:10:58;;;;;;;10.38;6.40;;;;;;;19.10;66.57;100749.39;1712505;83;21247;-57
2022/08/08 00:14:39;;;;;;;6.72;5.83;;;;;;;19.07;66.70;100740.12;1691912;85;21354;-57
2022/08/08 00:18:08;;;;;;;10.68;6.53;;;;;;;19.02;66.69;100739.93;1722230;82;21216;-55
2022/08/08 00:21:15;;;;;;;8.95;6.25;;;;;;;19.00;66.79;100743.46;1712200;84;21195;-56
2022/08/08 00:24:28;;;;;;;11.48;7.33;;;;;;;18.98;66.92;100752.53;1691928;84;21337;-57
2022/08/08 00:27:36;;;;;;;13.72;6.53;;;;;;;18.96;66.98;100756.61;1712272;82;21223;-57
2022/08/08 00:30:46;;;;;;;9.53;6.05;;;;;;;18.90;67.09;100754.73;1691837;84;21789;-56
2022/08/08 00:37:48;;;;;;;10.95;6.42;;;;;;;18.79;66.99;100747.92;1712456;82;21205;-56
2022/08/08 00:41:26;;;;;;;8.35;5.75;;;;;;;18.72;67.07;100755.45;1698847;83;21203;-57
2022/08/08 00:45:00;;;;;;;10.38;6.45;;;;;;;18.72;67.29;100749.03;1691786;85;21212;-56
2022/08/08 00:48:51;;;;;;;9.85;5.97;;;;;;;18.71;67.52;100741.23;1692147;83;21255;-56
2022/08/08 00:52:18;;;;;;;10.10;6.85;;;;;;;18.68;67.60;100737.52;1685598;84;21228;-57
2022/08/08 00:56:01;;;;;;;9.18;6.62;;;;;;;18.66;67.68;100738.83;1691678;84;21180;-57
2022/08/08 00:59:41;;;;;;;7.20;6.12;;;;;;;18.65;67.82;100739.88;1684765;85;21229;-57
2022/08/08 01:03:26;;;;;;;10.80;6.58;;;;;;;18.62;67.82;100744.48;1705377;83;21208;-57
2022/08/08 01:06:46;;;;;;;6.83;6.15;;;;;;;18.57;67.81;100738.20;1709037;82;21228;-56
2022/08/08 01:10:28;;;;;;;9.05;6.40;;;;;;;18.53;67.82;100730.55;1714899;83;21240;-57
2022/08/08 01:14:16;;;;;;;10.68;6.17;;;;;;;18.49;67.88;100734.29;1715011;82;21262;-57
2022/08/08 01:17:50;;;;;;;6.58;5.78;;;;;;;18.47;68.02;100739.19;1716892;82;21204;-57
2022/08/08 01:21:40;;;;;;;10.43;6.85;;;;;;;18.45;68.19;100737.20;1714982;83;21184;-56
2022/08/08 01:25:01;;;;;;;8.10;5.85;;;;;;;18.45;68.29;100741.87;1714481;83;21231;-57
2022/08/08 01:28:29;;;;;;;6.78;5.87;;;;;;;18.42;68.29;100739.02;1713092;82;21382;-54
2022/08/08 01:32:11;;;;;;;9.33;6.08;;;;;;;18.38;68.23;100739.13;1713234;82;21180;-54
2022/08/08 01:35:43;;;;;;;12.10;6.33;;;;;;;18.35;68.33;100742.30;1715180;83;21204;-57
2022/08/08 01:39:15;;;;;;;7.97;6.50;;;;;;;18.30;68.40;100740.71;1714941;82;21216;-55
2022/08/08 01:42:39;;;;;;;7.65;6.70;;;;;;;18.27;68.42;100745.30;1715395;82;21231;-56
2022/08/08 01:46:22;;;;;;;10.05;6.40;;;;;;;18.24;68.52;100751.28;1716827;82;21203;-56
2022/08/08 01:49:59;;;;;;;14.07;6.30;;;;;;;18.22;68.59;100752.03;1715523;83;21232;-57
2022/08/08 01:53:41;;;;;;;10.25;6.20;;;;;;;18.20;68.75;100756.95;1703824;82;21219;-57
2022/08/08 01:57:30;;;;;;;10.63;6.17;;;;;;;18.18;68.86;100765.15;1716135;82;21408;-55
2022/08/08 02:01:04;;;;;;;6.87;6.28;;;;;;;18.15;68.88;100765.58;1704678;82;21192;-56
2022/08/08 02:04:33;;;;;;;11.57;7.05;;;;;;;18.11;68.97;100761.00;1715662;83;21203;-56
2022/08/08 02:08:16;;;;;;;13.70;6.67;;;;;;;18.07;69.04;100768.05;1713498;82;21237;-56
2022/08/08 02:11:31;;;;;;;7.42;6.35;;;;;;;18.09;69.16;100767.31;1712351;83;21180;-56
2022/08/08 02:14:56;;;;;;;8.18;6.15;;;;;;;18.10;69.33;100762.08;1711657;83;21187;-56
2022/08/08 02:18:32;;;;;;;15.13;6.83;;;;;;;18.11;69.45;100773.47;1712165;82;21300;-56
2022/08/08 02:26:00;;;;;;;11.08;6.60;;;;;;;18.09;69.44;100779.78;1676371;85;21194;-56
2022/08/08 02:29:39;;;;;;;10.93;6.60;;;;;;;18.09;69.54;100778.92;1712155;84;21188;-56
2022/08/08 02:33:00;;;;;;;14.80;6.95;;;;;;;18.07;69.59;100777.75;1688109;83;21221;-57
2022/08/08 02:36:20;;;;;;;7.67;6.70;;;;;;;18.03;69.51;100784.77;1692301;84;21267;-55
2022/08/08 02:40:00;;;;;;;7.72;6.78;;;;;;;18.00;69.54;100776.06;1691785;84;21216;-55
2022/08/08 02:43:40;;;;;;;11.78;6.62;;;;;;;17.97;69.54;100783.39;1713281;82;21239;-56
2022/08/08 02:47:19;;;;;;;7.78;6.65;;;;;;;17.96;69.74;100788.09;1676708;84;21249;-56
2022/08/08 02:50:41;;;;;;;12.75;7.33;;;;;;;17.98;69.99;100787.36;1712355;83;21232;-57
2022/08/08 02:54:02;;;;;;;;;;;;;;;17.98;70.06;100792.91;1707613;83;21229;-56
2022/08/08 02:57:42;;;;;;;10.85;6.95;;;;;;;17.98;70.09;100795.67;1690427;83;20202;-56
2022/08/08 03:01:20;;;;;;;11.08;7.78;;;;;;;17.99;70.22;100799.27;1713042;83;21235;-56
2022/08/08 03:04:49;;;;;;;12.90;7.87;;;;;;;18.00;70.23;100805.98;1713221;83;21204;-56
2022/08/08 03:08:37;;;;;;;13.93;8.45;;;;;;;17.97;70.14;100809.70;1692924;80;21231;-56
2022/08/08 03:12:14;;;;;;;8.35;7.45;;;;;;;17.95;70.12;100806.32;1691516;83;21458;-56
2022/08/08 03:15:44;;;;;;;12.18;8.15;;;;;;;17.96;70.27;100808.88;1711412;83;21215;-56
2022/08/08 03:19:31;;;;;;;13.20;8.98;;;;;;;18.01;70.48;100809.09;1711700;82;21432;-56
2022/08/08 03:22:37;;;;;;;11.90;8.68;;;;;;;18.09;70.69;100813.56;1712364;82;21433;-56
2022/08/08 03:25:42;;;;;;;10.53;8.55;;;;;;;18.19;70.90;100821.75;1658588;85;21241;-56
2022/08/08 03:28:53;;;;;;;11.83;8.80;;;;;;;18.28;71.01;100826.03;1711580;82;21306;-56
2022/08/08 03:35:32;;;;;;;26.20;21.82;;;;;;;18.45;71.03;100823.14;1711486;84;21717;-56
2022/08/08 03:38:32;;;;;;;18.73;15.60;;;;;;;18.55;71.09;100826.30;1690962;83;21304;-56
2022/08/08 03:41:27;;;;;;;16.60;11.38;;;;;;;18.64;71.12;100830.57;1710866;83;21310;-56
2022/08/08 03:44:16;;;;;;;12.23;9.53;;;;;;;18.73;71.10;100829.78;1690189;84;21209;-57
2022/08/08 03:47:12;;;;;;;12.75;9.23;;;;;;;18.84;71.13;100832.73;1712365;82;21188;-56
2022/08/08 03:50:01;;;;;;;10.35;9.20;;;;;;;18.92;71.16;100831.11;1678834;84;21197;-56
2022/08/08 03:52:57;;;;;;;11.20;9.13;;;;;;;19.01;71.22;100831.73;1712563;82;21223;-56
2022/08/08 03:55:48;;;;;;;17.40;10.43;;;;;;;19.11;71.28;100832.09;1692058;84;21220;-56
2022/08/08 03:58:44;;;;;;;14.55;9.90;;;;;;;19.21;71.39;100831.09;1712317;82;21267;-56
2022/08/08 04:01:37;;;;;;;11.15;9.03;;;;;;;19.33;71.47;100832.98;1664150;83;21259;-56
2022/08/08 04:04:32;;;;;;;11.50;10.05;;;;;;;19.44;71.50;100841.70;1714271;82;21228;-57
2022/08/08 04:07:20;;;;;;;13.10;9.53;;;;;;;19.54;71.55;100839.27;1675430;84;21331;-56
2022/08/08 04:10:21;;;;;;;13.72;9.25;;;;;;;19.63;71.53;100844.90;1677187;83;21188;-56
2022/08/08 04:13:33;;;;;;;12.55;9.45;;;;;;;19.71;71.60;100845.46;1682121;84;21219;-57
2022/08/08 04:16:40;;;;;;;14.05;9.53;;;;;;;19.83;71.67;100853.42;1698307;83;21190;-57
2022/08/08 04:19:46;;;;;;;13.48;9.30;;;;;;;19.94;71.70;100856.00;1685269;84;21232;-57
2022/08/08 04:22:53;;;;;;;14.25;11.05;;;;;;;20.04;71.78;100857.75;1701264;82;21240;-57
2022/08/08 04:26:00;;;;;;;12.93;9.90;;;;;;;20.17;71.89;100853.52;1653849;87;21235;-57
2022/08/08 04:29:10;;;;;;;17.48;11.22;;;;;;;20.29;71.97;100854.47;1638362;86;21213;-57
2022/08/08 04:32:16;;;;;;;12.25;10.90;;;;;;;20.39;72.02;100857.03;1673134;85;21252;-57
2022/08/08 04:35:25;;;;;;;13.45;10.95;;;;;;;20.51;72.12;100862.17;1672426;84;21227;-57
2022/08/08 04:38:32;;;;;;;11.12;9.93;;;;;;;20.63;72.17;100863.64;1671015;84;21280;-56
2022/08/08 04:41:41;;;;;;;14.95;10.72;;;;;;;20.74;72.25;100862.88;1721536;82;21874;-56
2022/08/08 04:44:49;;;;;;;12.85;11.40;;;;;;;20.87;72.34;100859.14;1726250;82;21587;-57
2022/08/08 04:48:01;;;;;;;11.57;10.28;;;;;;;20.97;72.40;100858.92;1726535;81;21959;-57
2022/08/08 04:51:08;;;;;;;13.10;11.20;;;;;;;21.08;72.43;100850.33;1693439;83;21227;-57
2022/08/08 04:54:16;;;;;;;12.28;10.98;;;;;;;21.18;72.48;100862.64;1694422;83;21256;-58
2022/08/08 04:57:29;;;;;;;11.35;9.90;;;;;;;21.31;72.54;100869.42;1705784;83;21276;-58
2022/08/08 05:00:37;;;;;;;12.30;11.00;;;;;;;21.45;72.60;100875.15;1703336;84;21212;-57
2022/08/08 05:07:03;;;;;;;11.75;9.90;;;;;;;21.68;72.65;100882.20;1675799;84;21422;-57
2022/08/08 05:10:11;;;;;;;14.30;9.30;;;;;;;21.80;72.64;100878.95;1723686;81;21743;-57
2022/08/08 05:13:20;;;;;;;13.53;9.10;;;;;;;21.90;72.67;100882.02;1714519;83;21216;-57
2022/08/08 05:16:29;;;;;;;12.87;8.00;;;;;;;22.01;72.69;100879.81;1718272;83;21189;-57
2022/08/08 05:19:39;;;;;;;13.48;9.05;;;;;;;22.15;72.71;100877.11;1712499;83;21194;-57
2022/08/08 05:22:42;;;;;;;15.58;8.35;;;;;;;22.29;72.69;100881.95;1699566;81;21268;-57
2022/08/08 05:25:52;;;;;;;12.35;8.73;;;;;;;22.44;72.70;100877.30;1721408;83;21191;-54
2022/08/08 05:28:59;;;;;;;9.30;8.05;;;;;;;22.53;72.68;100885.65;1719075;83;21342;-54
2022/08/08 05:32:08;;;;;;;12.23;8.13;;;;;;;22.64;72.64;100886.20;1703143;83;21236;-55
2022/08/08 05:35:16;;;;;;;13.10;8.30;;;;;;;22.72;72.58;100889.45;1700673;83;21229;-54
2022/08/08 05:38:24;;;;;;;11.73;7.97;;;;;;;22.80;72.58;100894.67;1699363;82;21232;-54
2022/08/08 05:41:34;;;;;;;10.48;7.67;;;;;;;22.90;72.58;100890.73;1703586;83;21268;-54
2022/08/08 05:44:42;;;;;;;16.65;7.67;;;;;;;23.03;72.58;100889.62;1705624;81;21220;-54
2022/08/08 05:47:52;;;;;;;13.35;8.75;;;;;;;23.16;72.58;100891.63;1717708;83;21237;-54
2022/08/08 05:51:01;;;;;;;11.38;7.53;;;;;;;23.33;72.62;100894.53;1731823;82;21197;-53
2022/08/08 05:54:10;;;;;;;11.83;8.23;;;;;;;23.51;72.62;100895.23;1729762;82;21213;-54
2022/08/08 05:57:23;;;;;;;12.45;8.68;;;;;;;23.69;72.57;100897.53;1712643;81;21237;-54
2022/08/08 06:00:38;;;;;;;10.43;8.73;;;;;;;23.88;72.56;100893.44;1703935;83;21711;-54
2022/08/08 06:03:49;;;;;;;12.68;9.35;;;;;;;24.12;72.62;100898.68;1668737;84;21325;-54
2022/08/08 06:07:02;;;;;;;;;;;;;;;24.36;72.59;100903.58;1722854;83;21271;-56
2022/08/08 06:10:15;;;;;;;12.73;8.58;;;;;;;24.59;72.57;100895.87;1751312;80;20233;-53
2022/08/08 06:13:23;;;;;;;14.20;7.70;;;;;;;24.76;72.42;100900.11;1732916;81;21737;-53
2022/08/08 06:16:32;;;;;;;11.83;7.42;;;;;;;24.91;72.29;100895.58;1731908;81;21243;-55
2022/08/08 06:19:46;;;;;;;8.38;7.03;;;;;;;25.07;72.12;100897.22;1729453;83;21199;-55
2022/08/08 06:22:56;;;;;;;11.75;7.33;;;;;;;25.21;71.94;100898.54;1730391;83;21381;-55
2022/08/08 06:26:14;;;;;;;10.70;7.15;;;;;;;25.34;71.82;100894.00;1730820;81;21203;-53
2022/08/08 06:29:21;;;;;;;12.40;7.78;;;;;;;25.45;71.69;100894.42;1741534;80;21262;-54
2022/08/08 06:32:31;;;;;;;9.63;7.20;;;;;;;25.55;71.51;100895.39;1687406;83;21291;-54
2022/08/08 06:35:54;;;;;;;9.08;7.08;;;;;;;25.66;71.42;100894.40;1705137;83;21234;-53
2022/08/08 06:39:02;;;;;;;10.82;7.42;;;;;;;25.78;71.38;100892.28;1701671;81;21198;-53
2022/08/08 06:42:17;;;;;;;8.58;7.37;;;;;;;25.90;71.30;100894.95;1700686;83;21202;-54
2022/08/08 06:45:31;;;;;;;12.37;7.10;;;;;;;26.01;71.22;100899.05;1696645;83;21716;-54
2022/08/08 06:48:42;;;;;;;;;;;;;;;26.10;71.13;100903.06;1702121;83;21670;-54
2022/08/08 06:51:49;;;;;;;9.23;6.17;;;;;;;26.21;71.01;100901.23;1701746;83;20246;-55
2022/08/08 06:55:09;;;;;;;11.70;5.60;;;;;;;26.25;70.84;100893.41;1687706;83;21233;-54
2022/08/08 06:58:37;;;;;;;9.88;5.12;;;;;;;26.32;70.64;100894.59;1700029;83;21605;-52
2022/08/08 07:01:54;;;;;;;6.83;4.53;;;;;;;26.40;70.50;100897.75;1701779;82;21207;-52
2022/08/08 07:05:15;;;;;;;6.93;4.50;;;;;;;26.52;70.32;100894.77;1683218;84;21817;-53
2022/08/08 07:08:28;;;;;;;8.55;4.30;;;;;;;26.61;70.12;100894.55;1673470;81;21904;-54
2022/08/08 07:11:37;;;;;;;8.35;4.50;;;;;;;26.70;69.99;100895.80;1675896;83;21730;-55
2022/08/08 07:14:55;;;;;;;5.78;5.05;;;;;;;26.75;69.77;100900.03;1664610;84;21232;-54
2022/08/08 07:18:08;;;;;;;6.92;4.22;;;;;;;26.82;69.78;100903.47;1721780;83;21237;-53
2022/08/08 07:21:20;;;;;;;5.83;4.25;;;;;;;26.92;69.69;100904.95;1702519;83;21261;-54
2022/08/08 07:24:48;;;;;;;8.73;4.30;;;;;;;26.98;69.43;100908.09;1709995;83;21292;-54
2022/08/08 07:28:00;;;;;;;5.15;4.00;;;;;;;27.04;69.15;100910.36;1713975;81;22120;-54
2022/08/08 07:31:11;;;;;;;;;;;;;;;27.14;68.96;100905.66;1707960;82;22003;-54
2022/08/08 07:34:25;;;;;;;9.75;5.78;;;;;;;27.26;68.86;100911.94;1722592;82;20234;-54
2022/08/08 07:37:34;;;;;;;7.58;4.95;;;;;;;27.36;68.79;100919.04;1730594;83;22145;-54
2022/08/08 07:40:43;;;;;;;8.93;4.87;;;;;;;27.45;68.61;100914.58;1730227;83;21256;-54
2022/08/08 07:43:51;;;;;;;7.30;5.60;;;;;;;27.56;68.49;100918.27;1730496;83;21790;-53
2022/08/08 07:47:00;;;;;;;11.75;6.30;;;;;;;27.66;68.38;100917.78;1711628;83;21248;-54
2022/08/08 07:50:08;;;;;;;8.15;4.80;;;;;;;27.75;68.15;100920.34;1729902;83;21284;-53
2022/08/08 07:53:42;;;;;;;5.40;4.30;;;;;;;27.84;67.80;100928.52;1702012;81;21805;-53
2022/08/08 07:57:06;;;;;;;5.40;4.60;;;;;;;27.87;67.59;100921.52;1724551;83;21268;-53
2022/08/08 08:00:23;;;;;;;7.40;5.15;;;;;;;27.91;67.36;100924.66;1731228;82;21743;-54
2022/08/08 08:03:55;;;;;;;8.73;3.95;;;;;;;27.92;67.15;100924.94;1701305;84;21244;-54
2022/08/08 08:07:04;;;;;;;8.50;3.72;;;;;;;27.95;66.94;100926.64;1701870;84;21587;-54
2022/08/08 08:10:20;;;;;;;5.30;3.50;;;;;;;27.96;66.64;100930.28;1717072;83;21303;-53
2022/08/08 08:13:53;;;;;;;8.15;3.87;;;;;;;27.94;66.32;100929.73;1728100;80;21765;-54
2022/08/08 08:17:04;;;;;;;8.08;4.10;;;;;;;27.93;66.18;100937.88;1715792;83;21212;-54
2022/08/08 08:20:14;;;;;;;4.70;4.20;;;;;;;27.96;66.01;100931.69;1739636;82;21243;-54
2022/08/08 08:23:24;;;;;;;6.03;3.80;;;;;;;27.98;65.86;100930.86;1746881;82;21748;-54
2022/08/08 08:26:34;;;;;;;6.22;3.83;;;;;;;27.99;65.69;100936.80;1710704;82;21773;-54
2022/08/08 08:29:44;;;;;;;6.95;4.22;;;;;;;28.01;65.51;100940.16;1718946;82;21766;-54
2022/08/08 08:32:53;;;;;;;9.58;3.60;;;;;;;28.03;65.29;100935.96;1732518;82;21749;-54
2022/08/08 08:36:05;;;;;;;8.70;3.60;;;;;;;28.05;65.08;100933.69;1730277;82;21196;-53
2022/08/08 08:39:14;;;;;;;9.35;3.92;;;;;;;28.11;64.92;100946.69;1726231;80;21738;-52
2022/08/08 08:42:24;;;;;;;7.55;3.95;;;;;;;28.15;64.70;100940.77;1734575;80;21239;-53
2022/08/08 08:45:32;;;;;;;8.58;4.15;;;;;;;28.20;64.57;100937.97;1737510;82;21611;-54
2022/08/08 08:48:42;;;;;;;6.92;3.95;;;;;;;28.24;64.34;100940.50;1731907;80;21304;-54
2022/08/08 08:51:49;;;;;;;6.75;3.87;;;;;;;28.30;64.27;100937.14;1722510;82;21204;-53
2022/08/08 08:55:01;;;;;;;5.55;3.47;;;;;;;28.39;64.05;100936.86;1719181;82;21235;-54
2022/08/08 08:58:09;;;;;;;7.85;3.95;;;;;;;28.44;63.64;100938.28;1712226;84;21239;-54
2022/08/08 09:01:24;;;;;;;10.95;4.85;;;;;;;28.49;63.44;100931.28;1716736;81;21195;-54
2022/08/08 09:04:40;;;;;;;6.22;4.30;;;;;;;28.56;63.42;100934.10;1670197;85;21219;-55
2022/08/08 09:07:52;;;;;;;;;;;;;;;28.62;63.09;100932.97;1690758;83;21258;-53
2022/08/08 09:11:02;;;;;;;8.05;3.67;;;;;;;28.68;62.86;100934.69;1678147;84;20618;-54
2022/08/08 09:14:10;;;;;;;6.92;3.12;;;;;;;28.77;62.60;100936.36;1675459;85;21760;-53
2022/08/08 09:17:19;;;;;;;3.83;2.72;;;;;;;28.87;62.34;100937.78;1674272;85;21234;-54
2022/08/08 09:20:42;;;;;;;8.00;4.08;;;;;;;28.96;61.98;100938.33;1672245;85;21234;-54
2022/08/08 09:23:47;;;;;;;5.17;3.52;;;;;;;29.04;61.85;100922.81;1700346;83;21222;-53
2022/08/08 09:27:12;;;;;;;8.73;3.90;;;;;;;29.15;61.57;100934.38;1713789;83;21290;-54
2022/08/08 09:30:22;;;;;;;6.05;3.70;;;;;;;29.23;61.26;100928.16;1702921;83;21254;-54
2022/08/08 09:33:30;;;;;;;11.55;3.83;;;;;;;29.29;61.01;100921.37;1708385;83;21894;-54
2022/08/08 09:36:43;;;;;;;7.45;2.92;;;;;;;29.34;60.63;100921.37;1691699;83;21214;-53
2022/08/08 09:40:03;;;;;;;5.65;3.35;;;;;;;29.44;60.43;100939.69;1696174;82;21249;-54
2022/08/08 09:43:36;;;;;;;6.12;3.52;;;;;;;29.53;59.97;100926.67;1673065;84;21242;-54
2022/08/08 09:46:46;;;;;;;5.72;3.77;;;;;;;29.61;59.65;100925.22;1679539;83;21835;-54
2022/08/08 09:49:58;;;;;;;8.95;4.22;;;;;;;29.70;59.50;100924.95;1664744;84;21729;-54
2022/08/08 09:53:08;;;;;;;7.72;3.98;;;;;;;29.78;59.27;100920.95;1688462;83;22095;-54
2022/08/08 09:56:18;;;;;;;5.87;4.20;;;;;;;29.83;58.99;100919.52;1622885;87;21256;-53
2022/08/08 09:59:50;;;;;;;5.45;4.90;;;;;;;29.99;58.09;100918.30;1675241;85;21293;-55
2022/08/08 10:03:00;;;;;;;7.37;4.65;;;;;;;29.99;58.09;100918.30;1637447;85;21260;-55
2022/08/08 10:06:25;;;;;;;7.37;4.15;;;;;;;29.98;58.26;100917.19;1670475;84;21897;-55
2022/08/08 10:09:38;;;;;;;7.40;3.92;;;;;;;30.01;57.84;100917.45;1684072;80;21580;-55
2022/08/08 10:12:49;;;;;;;9.58;5.03;;;;;;;30.05;57.76;100912.90;1736426;80;21282;-54
2022/08/08 10:16:01;;;;;;;8.75;4.17;;;;;;;30.12;57.59;100907.79;1735343;81;21733;-55
2022/08/08 10:19:22;;;;;;;6.92;3.55;;;;;;;30.21;57.43;100912.27;1739692;81;21237;-55
2022/08/08 10:22:33;;;;;;;9.15;3.10;;;;;;;30.31;57.40;100909.38;1740799;81;21219;-55
2022/08/08 10:25:43;;;;;;;9.50;2.77;;;;;;;30.39;56.97;100915.27;1745641;82;21221;-56
2022/08/08 10:28:58;;;;;;;5.37;2.45;;;;;;;30.43;56.58;100915.50;1729140;81;21386;-59
2022/08/08 10:35:33;;;;;;;3.47;2.20;;;;;;;30.35;56.10;100918.39;1722299;82;21228;-56
2022/08/08 10:38:39;;;;;;;5.55;2.40;;;;;;;30.37;55.55;100919.50;1721449;81;21314;-57
2022/08/08 10:41:48;;;;;;;4.78;2.15;;;;;;;30.44;55.30;100919.48;1718686;83;21219;-57
2022/08/08 10:45:12;;;;;;;4.80;2.22;;;;;;;30.58;55.13;100925.29;1718799;83;21195;-56
2022/08/08 10:48:24;;;;;;;3.70;2.40;;;;;;;30.70;54.80;100915.84;1720515;83;21658;-57
2022/08/08 10:51:38;;;;;;;6.05;2.10;;;;;;;30.80;54.53;100916.36;1720304;83;21220;-57
2022/08/08 10:54:47;;;;;;;6.55;2.33;;;;;;;30.89;54.17;100903.30;1719667;83;21192;-57
2022/08/08 10:57:56;;;;;;;11.00;3.05;;;;;;;31.01;53.96;100901.75;1719624;83;21903;-58
2022/08/08 11:01:05;;;;;;;5.50;2.17;;;;;;;31.09;53.60;100897.42;1730247;82;21232;-55
2022/08/08 11:04:17;;;;;;;8.55;2.77;;;;;;;31.20;53.38;100894.20;1738180;82;21204;-57
2022/08/08 11:07:45;;;;;;;8.43;2.80;;;;;;;31.29;52.99;100905.12;1750093;81;21216;-56
2022/08/08 11:10:57;;;;;;;5.95;2.62;;;;;;;31.31;52.61;100897.22;1723109;80;21216;-58
2022/08/08 11:14:08;;;;;;;7.55;2.50;;;;;;;31.35;52.32;100895.45;1696092;83;21754;-57
2022/08/08 11:17:21;;;;;;;4.35;2.40;;;;;;;31.44;52.06;100903.58;1683551;84;21244;-57
2022/08/08 11:20:36;;;;;;;8.63;3.42;;;;;;;31.54;51.79;100889.28;1674455;83;21711;-57
2022/08/08 11:23:49;;;;;;;10.78;2.72;;;;;;;31.65;51.51;100888.00;1696602;83;21532;-56
2022/08/08 11:26:59;;;;;;;6.92;2.62;;;;;;;31.72;51.23;100892.73;1691142;84;21793;-57
2022/08/08 11:30:07;;;;;;;6.72;3.15;;;;;;;31.74;50.83;100893.85;1676025;84;21772;-56
2022/08/08 11:33:18;;;;;;;5.55;2.95;;;;;;;31.65;50.43;100890.84;1677931;85;21296;-56
2022/08/08 11:36:26;;;;;;;6.78;3.02;;;;;;;31.47;49.99;100896.45;1707517;82;21287;-55
2022/08/08 11:39:33;;;;;;;6.78;3.08;;;;;;;31.32;49.75;100892.38;1715729;83;21641;-55
2022/08/08 11:42:41;;;;;;;3.80;2.55;;;;;;;31.16;49.57;100897.92;1686732;82;21530;-55
2022/08/08 11:45:50;;;;;;;9.55;3.30;;;;;;;31.05;49.46;100897.77;1712460;82;21313;-57
2022/08/08 11:48:58;;;;;;;6.97;3.30;;;;;;;30.99;49.34;100903.17;1694940;83;21237;-58
2022/08/08 11:52:11;;;;;;;6.35;3.30;;;;;;;30.89;49.13;100908.95;1717810;82;21258;-58
2022/08/08 11:55:26;;;;;;;6.92;3.60;;;;;;;30.81;49.07;100915.24;1704910;82;21289;-55
2022/08/08 11:58:41;;;;;;;7.42;3.85;;;;;;;30.77;49.06;100911.30;1672722;85;21844;-57
2022/08/08 12:01:42;;;;;;;10.25;3.98;;;;;;;30.70;48.96;100912.20;1667250;83;21237;-56
2022/08/08 12:04:38;;;;;;;7.20;4.00;;;;;;;30.62;48.88;100915.92;1682907;82;21237;-57
2022/08/08 12:07:27;;;;;;;7.45;4.40;;;;;;;30.53;48.83;100917.70;1690479;83;21292;-58
2022/08/08 12:10:26;;;;;;;12.55;4.62;;;;;;;30.47;48.83;100917.47;1694567;82;21756;-58
2022/08/08 12:13:24;;;;;;;7.12;4.42;;;;;;;30.42;48.80;100920.33;1707590;82;21220;-57
2022/08/08 12:16:32;;;;;;;8.70;4.80;;;;;;;30.38;48.79;100912.14;1712874;83;21802;-58
2022/08/08 12:19:40;;;;;;;11.65;6.12;;;;;;;30.34;48.82;100920.09;1695876;83;21572;-56
2022/08/08 12:22:58;;;;;;;10.60;6.15;;;;;;;30.29;48.84;100908.82;1696007;83;21251;-55
2022/08/08 12:26:19;;;;;;;13.90;6.10;;;;;;;30.29;48.91;100913.91;1705308;83;21200;-56
2022/08/08 12:29:42;;;;;;;5.95;5.35;;;;;;;30.26;48.92;100912.23;1682578;84;21264;-58
2022/08/08 12:32:57;;;;;;;8.25;5.50;;;;;;;30.17;48.95;100911.14;1683259;84;21204;-57
2022/08/08 12:36:04;;;;;;;8.38;5.33;;;;;;;30.10;49.01;100917.67;1699645;82;21201;-59
2022/08/08 12:39:10;;;;;;;11.10;5.28;;;;;;;30.07;49.09;100909.22;1699244;82;21517;-57
2022/08/08 12:42:20;;;;;;;9.23;5.17;;;;;;;30.08;49.12;100910.90;1692468;82;21201;-58
2022/08/08 12:45:30;;;;;;;7.65;5.00;;;;;;;30.08;49.13;100915.14;1707519;83;21188;-57
2022/08/08 12:48:41;;;;;;;5.28;4.42;;;;;;;30.10;49.06;100918.52;1678032;83;21208;-56
2022/08/08 12:51:49;;;;;;;5.65;4.28;;;;;;;30.15;49.08;100911.44;1704752;83;21239;-55
2022/08/08 12:54:59;;;;;;;3.98;3.58;;;;;;;30.26;49.09;100905.17;1700921;83;21240;-55
2022/08/08 12:58:20;;;;;;;9.00;3.87;;;;;;;30.34;49.08;100911.06;1689818;84;21245;-57
2022/08/08 13:01:45;;;;;;;7.03;4.22;;;;;;;30.30;48.90;100907.70;1701659;84;21225;-56
2022/08/08 13:04:56;;;;;;;11.03;4.67;;;;;;;30.21;48.88;100912.27;1712065;82;21334;-54
2022/08/08 13:08:24;;;;;;;7.03;4.20;;;;;;;30.07;48.88;100908.37;1703940;82;21224;-55
2022/08/08 13:11:40;;;;;;;7.85;4.72;;;;;;;29.99;48.91;100910.39;1710764;82;21274;-56
2022/08/08 13:14:55;;;;;;;10.32;4.62;;;;;;;29.93;48.92;100920.89;1708044;82;21350;-56
2022/08/08 13:18:03;;;;;;;8.93;4.30;;;;;;;29.84;48.97;100925.46;1736198;82;21198;-54
2022/08/08 13:21:12;;;;;;;7.70;4.62;;;;;;;29.79;49.05;100917.02;1713042;83;21223;-54
2022/08/08 13:24:21;;;;;;;7.37;4.45;;;;;;;29.73;49.14;100922.38;1714149;83;21216;-52
2022/08/08 13:27:35;;;;;;;8.18;4.97;;;;;;;29.69;49.20;100921.28;1705020;83;21225;-53
2022/08/08 13:30:45;;;;;;;5.97;4.78;;;;;;;29.64;49.27;100928.87;1716686;81;21737;-53
2022/08/08 13:33:54;;;;;;;6.85;4.55;;;;;;;29.59;49.33;100925.52;1715602;83;21233;-53
2022/08/08 13:37:03;;;;;;;7.78;4.37;;;;;;;29.56;49.51;100920.44;1684747;82;21814;-54
2022/08/08 13:40:13;;;;;;;7.20;4.40;;;;;;;29.51;49.45;100915.41;1722692;81;21182;-54
2022/08/08 13:43:24;;;;;;;6.75;4.22;;;;;;;29.50;49.37;100922.16;1715745;81;21261;-54
2022/08/08 13:46:32;;;;;;;7.37;4.15;;;;;;;29.44;49.46;100908.65;1675345;83;21222;-54
2022/08/08 13:49:41;;;;;;;5.42;4.10;;;;;;;29.48;49.50;100899.88;1707643;83;21230;-54
2022/08/08 13:52:55;;;;;;;7.75;4.10;;;;;;;29.56;49.51;100899.28;1727682;83;21284;-53
2022/08/08 13:56:07;;;;;;;7.85;3.92;;;;;;;29.66;49.54;100903.52;1715609;81;21200;-53
2022/08/08 13:59:16;;;;;;;7.42;4.00;;;;;;;29.72;49.53;100905.17;1738401;81;21201;-52
2022/08/08 14:02:30;;;;;;;7.53;4.30;;;;;;;29.78;49.53;100904.01;1696225;82;21763;-54
2022/08/08 14:05:39;;;;;;;8.75;4.53;;;;;;;29.80;49.56;100913.59;1726810;81;21193;-56
2022/08/08 14:08:53;;;;;;;10.15;4.42;;;;;;;29.81;49.43;100910.48;1712124;83;21230;-54
2022/08/08 14:12:02;;;;;;;6.87;4.47;;;;;;;29.81;49.39;100918.95;1705125;81;21236;-55
2022/08/08 14:15:08;;;;;;;6.40;4.58;;;;;;;29.74;49.40;100907.70;1705282;81;21805;-48
2022/08/08 14:18:18;;;;;;;7.05;5.10;;;;;;;29.70;49.44;100910.84;1701378;84;21240;-57
2022/08/08 14:21:27;;;;;;;6.72;5.40;;;;;;;29.70;49.59;100910.25;1711515;83;21571;-57
2022/08/08 14:24:39;;;;;;;9.03;5.30;;;;;;;29.69;49.52;100912.81;1730379;83;21193;-59
2022/08/08 14:27:49;;;;;;;7.70;4.80;;;;;;;29.70;49.33;100917.31;1727244;83;21730;-59
2022/08/08 14:31:00;;;;;;;;;;;;;;;29.73;49.67;100911.08;1729149;83;21754;-58
2022/08/08 14:34:13;;;;;;;7.53;4.65;;;;;;;29.76;49.72;100916.18;1714631;83;20214;-57
2022/08/08 14:37:24;;;;;;;9.47;4.23;;;;;;;29.83;49.83;100916.69;1731706;83;21229;-55
2022/08/08 14:40:39;;;;;;;6.30;4.33;;;;;;;29.92;49.86;100916.36;1722347;81;21196;-57
2022/08/08 14:43:57;;;;;;;;;;;;;;;29.94;49.83;100902.80;1707773;83;21288;-58
2022/08/08 14:47:08;;;;;;;7.00;4.12;;;;;;;30.01;50.01;100900.52;1710173;82;20614;-56
2022/08/08 14:50:18;;;;;;;8.38;4.03;;;;;;;30.11;50.00;100905.26;1729964;81;21221;-56
2022/08/08 14:53:29;;;;;;;16.75;5.75;;;;;;;30.16;50.00;100900.40;1657538;84;21287;-57
2022/08/08 14:56:39;;;;;;;5.85;3.87;;;;;;;30.13;49.95;100895.89;1702673;83;21205;-57
2022/08/08 14:59:46;;;;;;;8.75;4.00;;;;;;;29.99;49.92;100897.13;1730297;81;21233;-58
2022/08/08 15:02:58;;;;;;;8.73;4.55;;;;;;;29.85;49.91;100891.84;1722261;82;21238;-56
2022/08/08 15:06:00;;;;;;;6.50;3.80;;;;;;;29.70;50.01;100898.97;1728535;82;21294;-57
2022/08/08 15:08:56;;;;;;;6.78;4.05;;;;;;;29.56;50.07;100898.45;1749675;81;21197;-57
2022/08/08 15:11:44;;;;;;;6.42;3.98;;;;;;;29.39;50.18;100890.32;1679454;84;21221;-57
2022/08/08 15:14:42;;;;;;;7.90;3.60;;;;;;;29.32;50.29;100897.41;1699050;81;21256;-57
2022/08/08 15:17:49;;;;;;;6.55;3.83;;;;;;;29.21;50.30;100880.50;1760612;81;21264;-57
2022/08/08 15:20:57;;;;;;;7.72;4.37;;;;;;;29.21;50.30;100880.50;1696708;84;21189;-56